Time;durP1;ratioP1;P1;durP2;ratioP2;P2;SDS_P1;SDS_P2;PMS_P1;PMS_P2;Temp;Humidity;BMP_temperature;BMP_pressure;BME280_temperature;BME280_humidity;BME280_pressure;Samples;Min_cycle;Max_cycle;Signal;HPM_P1;HPM_P2
2022/12/12 00:00:13;;;;;;;0.80;0.80;;;15.40;47.30;;;;;;5093238;28;20062;-11
2022/12/12 00:02:40;;;;;;;0.85;0.85;;;15.40;47.30;;;;;;5093520;28;20510;-11
2022/12/12 00:05:07;;;;;;;0.90;0.90;;;15.40;47.30;;;;;;5093326;28;20054;-10
2022/12/12 00:07:32;;;;;;;0.95;0.95;;;15.40;47.30;;;;;;5093147;28;20102;-10
2022/12/12 00:09:58;;;;;;;1.00;1.00;;;15.50;47.30;;;;;;5093667;28;20056;-11
2022/12/12 00:12:24;;;;;;;0.82;0.82;;;15.40;47.30;;;;;;5093242;28;20446;-10
2022/12/12 00:14:50;;;;;;;0.73;0.73;;;15.40;47.30;;;;;;5091808;28;20056;-10
2022/12/12 00:17:16;;;;;;;0.80;0.80;;;15.40;47.30;;;;;;5093004;28;20071;-11
2022/12/12 00:19:42;;;;;;;0.82;0.82;;;15.40;47.30;;;;;;5092889;28;20129;-10
2022/12/12 00:22:08;;;;;;;0.80;0.80;;;15.40;47.80;;;;;;5093021;28;20090;-10
2022/12/12 00:24:35;;;;;;;1.00;1.00;;;15.40;47.30;;;;;;5092907;28;20078;-10
2022/12/12 00:27:00;;;;;;;0.93;0.93;;;15.40;47.80;;;;;;5092912;28;20055;-10
2022/12/12 00:29:26;;;;;;;0.88;0.88;;;15.40;47.30;;;;;;5091510;28;20047;-11
2022/12/12 00:31:52;;;;;;;0.88;0.80;;;15.40;47.30;;;;;;5093137;28;20055;-11
2022/12/12 00:34:17;;;;;;;0.80;0.80;;;15.40;47.30;;;;;;5074369;28;20519;-10
2022/12/12 00:36:43;;;;;;;0.80;0.80;;;15.40;47.30;;;;;;5092617;28;20044;-10
2022/12/12 00:39:08;;;;;;;0.80;0.80;;;15.40;47.30;;;;;;5092511;28;20056;-10
2022/12/12 00:41:36;;;;;;;0.80;0.80;;;15.40;47.40;;;;;;5092783;28;20051;-11
2022/12/12 00:44:02;;;;;;;0.90;0.90;;;15.40;47.30;;;;;;5092896;28;20051;-10
2022/12/12 00:46:28;;;;;;;0.90;0.90;;;15.40;47.40;;;;;;5092736;28;20079;-10
2022/12/12 00:48:55;;;;;;;0.80;0.80;;;15.40;47.30;;;;;;5092590;28;20117;-11
2022/12/12 00:51:23;;;;;;;0.90;0.90;;;15.40;47.30;;;;;;5092890;28;20139;-10
2022/12/12 00:53:49;;;;;;;0.80;0.80;;;15.40;47.30;;;;;;5092632;28;20060;-11
2022/12/12 00:56:19;;;;;;;1.10;1.00;;;15.40;47.30;;;;;;5092569;28;20093;-11
2022/12/12 00:58:45;;;;;;;1.05;0.95;;;15.40;47.30;;;;;;5092459;28;20075;-11
2022/12/12 01:01:17;;;;;;;0.90;0.90;;;15.40;47.30;;;;;;5092600;28;20445;-11
2022/12/12 01:03:43;;;;;;;0.90;0.90;;;15.40;47.30;;;;;;5092832;28;20083;-11
2022/12/12 01:06:10;;;;;;;1.20;1.10;;;15.40;47.30;;;;;;5092456;28;20087;-10
2022/12/12 01:08:36;;;;;;;1.08;0.90;;;15.40;47.30;;;;;;5092283;28;20051;-10
2022/12/12 01:11:02;;;;;;;0.80;0.80;;;15.40;47.30;;;;;;5092422;28;20120;-11
2022/12/12 01:13:28;;;;;;;0.82;0.82;;;15.40;47.30;;;;;;5092428;28;20489;-10
2022/12/12 01:15:55;;;;;;;1.05;1.00;;;15.40;47.30;;;;;;5092374;28;20098;-10
2022/12/12 01:18:21;;;;;;;1.10;1.00;;;15.40;47.30;;;;;;5092621;28;20129;-10
2022/12/12 01:20:47;;;;;;;1.10;1.00;;;15.40;47.30;;;;;;5092625;28;20067;-10
2022/12/12 01:23:13;;;;;;;0.90;0.90;;;15.40;47.40;;;;;;5092242;28;20409;-10
2022/12/12 01:25:39;;;;;;;1.10;1.02;;;15.40;47.40;;;;;;5092163;28;20109;-10
2022/12/12 01:28:04;;;;;;;0.90;0.90;;;15.40;47.40;;;;;;5073369;28;20098;-10
2022/12/12 01:30:31;;;;;;;0.80;0.80;;;15.40;47.40;;;;;;5092096;28;20062;-10
2022/12/12 01:32:56;;;;;;;1.00;1.00;;;15.40;47.40;;;;;;5092075;28;20164;-10
2022/12/12 01:35:22;;;;;;;0.90;0.90;;;15.40;47.40;;;;;;5091973;28;20055;-10
2022/12/12 01:37:48;;;;;;;1.02;1.00;;;15.40;47.40;;;;;;5091919;28;20080;-10
2022/12/12 01:40:20;;;;;;;1.23;1.10;;;15.40;47.40;;;;;;5091795;28;20106;-11
2022/12/12 01:42:46;;;;;;;0.80;0.80;;;15.40;47.40;;;;;;5091730;28;20055;-11
2022/12/12 01:45:49;;;;;;;1.00;1.00;;;15.40;47.40;;;;;;5091988;28;20052;-10
2022/12/12 01:48:15;;;;;;;1.00;1.00;;;15.40;47.40;;;;;;5091712;28;20055;-11
2022/12/12 01:50:43;;;;;;;0.85;0.80;;;15.40;47.40;;;;;;5092108;28;20048;-10
2022/12/12 01:53:11;;;;;;;0.90;0.90;;;15.40;47.40;;;;;;5095821;28;20517;-10
2022/12/12 01:55:38;;;;;;;1.45;1.30;;;15.40;47.40;;;;;;5095220;28;20062;-11
2022/12/12 01:58:06;;;;;;;1.30;1.20;;;15.40;47.40;;;;;;5095156;28;20058;-11
2022/12/12 02:00:33;;;;;;;1.08;0.98;;;15.40;47.40;;;;;;5095629;28;20062;-10
2022/12/12 02:02:59;;;;;;;0.77;0.77;;;15.40;47.40;;;;;;5095144;28;20105;-11
2022/12/12 02:05:29;;;;;;;0.60;0.60;;;15.40;47.50;;;;;;5095105;28;20401;-10
2022/12/12 02:07:59;;;;;;;0.85;0.82;;;15.40;47.50;;;;;;5094892;28;20051;-10
2022/12/12 02:10:25;;;;;;;1.27;1.17;;;15.40;47.50;;;;;;5077075;28;20060;-10
2022/12/12 02:12:55;;;;;;;1.13;1.02;;;15.40;47.50;;;;;;5076496;28;20052;-10
2022/12/12 02:15:22;;;;;;;0.80;0.80;;;15.40;47.50;;;;;;5095349;28;20079;-10
2022/12/12 02:17:56;;;;;;;0.90;0.90;;;15.40;47.50;;;;;;5076067;28;20443;-10
2022/12/12 02:20:41;;;;;;;0.85;0.85;;;15.40;47.50;;;;;;5094812;28;20048;-10
2022/12/12 02:23:39;;;;;;;1.23;1.10;;;15.40;47.50;;;;;;5094778;28;20185;-10
2022/12/12 02:26:26;;;;;;;1.20;1.10;;;15.40;47.50;;;;;;5076152;28;20059;-10
2022/12/12 02:29:10;;;;;;;1.00;0.90;;;15.40;47.50;;;;;;5094370;28;20385;-10
2022/12/12 02:31:57;;;;;;;0.93;0.93;;;15.40;47.50;;;;;;5094684;28;20139;-10
2022/12/12 02:34:41;;;;;;;1.30;1.20;;;15.40;47.50;;;;;;5076597;28;20067;-11
2022/12/12 02:37:27;;;;;;;0.98;0.90;;;15.40;47.50;;;;;;5094646;28;20044;-11
2022/12/12 02:40:14;;;;;;;1.10;1.00;;;15.30;47.40;;;;;;5094330;28;20055;-10
2022/12/12 02:42:53;;;;;;;1.30;1.20;;;15.40;47.50;;;;;;5094557;28;20071;-10
2022/12/12 02:45:33;;;;;;;1.30;1.20;;;15.40;47.50;;;;;;5094539;28;20097;-10
2022/12/12 02:48:25;;;;;;;1.05;1.00;;;15.40;47.50;;;;;;5094355;28;20092;-10
2022/12/12 02:50:54;;;;;;;0.80;0.80;;;15.40;47.50;;;;;;5094468;28;20054;-10
2022/12/12 02:53:22;;;;;;;1.00;1.00;;;15.40;47.50;;;;;;5094491;28;20056;-10
2022/12/12 02:55:49;;;;;;;1.10;1.00;;;15.40;47.50;;;;;;5094585;28;20409;-10
2022/12/12 02:58:18;;;;;;;0.80;0.80;;;15.40;47.50;;;;;;5094303;28;20052;-11
2022/12/12 03:01:10;;;;;;;0.93;0.90;;;15.40;47.50;;;;;;5094573;28;20452;-10
2022/12/12 03:10:15;;;;;;;0.90;0.90;;;15.40;47.50;;;;;;5094106;28;20048;-10
2022/12/12 03:13:03;;;;;;;1.17;1.08;;;15.40;47.50;;;;;;5093879;28;20497;-11
2022/12/12 03:15:53;;;;;;;0.98;0.98;;;15.40;47.50;;;;;;5094301;28;20584;-10
2022/12/12 03:18:36;;;;;;;0.93;0.93;;;15.30;47.40;;;;;;5093845;28;20078;-10
2022/12/12 03:21:22;;;;;;;0.80;0.80;;;15.30;47.40;;;;;;5093923;28;21251;-10
2022/12/12 03:23:52;;;;;;;1.02;1.00;;;15.30;47.40;;;;;;5035125;28;20076;-11
2022/12/12 03:26:40;;;;;;;0.90;0.90;;;15.40;47.50;;;;;;5075731;28;20142;-10
2022/12/12 03:29:18;;;;;;;0.90;0.90;;;15.40;47.50;;;;;;5093523;28;20054;-11
2022/12/12 03:31:51;;;;;;;1.00;0.93;;;15.30;47.40;;;;;;5093979;28;20436;-11
2022/12/12 03:34:24;;;;;;;0.90;0.90;;;15.30;47.40;;;;;;5093823;28;20044;-10
2022/12/12 03:36:54;;;;;;;1.08;0.98;;;15.30;47.40;;;;;;5093928;28;20447;-11
2022/12/12 03:39:24;;;;;;;0.82;0.82;;;15.30;47.40;;;;;;5093734;28;20170;-11
2022/12/12 03:42:01;;;;;;;1.00;1.00;;;15.30;47.40;;;;;;5093695;28;20090;-11
2022/12/12 03:44:58;;;;;;;0.85;0.85;;;15.30;47.40;;;;;;5093619;28;20084;-10
2022/12/12 03:47:35;;;;;;;0.98;0.98;;;15.30;47.40;;;;;;5093385;28;20051;-11
2022/12/12 03:50:12;;;;;;;1.05;1.05;;;15.30;47.40;;;;;;5093373;28;20052;-11
2022/12/12 03:52:46;;;;;;;0.98;0.90;;;15.40;48.00;;;;;;5093468;28;20087;-10
2022/12/12 03:55:27;;;;;;;1.10;1.00;;;15.30;47.40;;;;;;5093371;28;20405;-11
2022/12/12 03:58:06;;;;;;;1.13;1.02;;;15.30;47.40;;;;;;5093233;28;20056;-10
2022/12/12 04:00:36;;;;;;;0.90;0.90;;;15.30;47.40;;;;;;5093721;28;20082;-10
2022/12/12 04:03:28;;;;;;;0.90;0.90;;;15.30;47.40;;;;;;5093206;28;20428;-11
2022/12/12 04:06:25;;;;;;;0.93;0.93;;;15.30;47.40;;;;;;5081358;28;20048;-11
2022/12/12 04:14:57;;;;;;;1.05;1.00;;;15.30;47.40;;;;;;5093005;28;20043;-11
2022/12/12 04:17:48;;;;;;;1.00;1.00;;;15.30;47.40;;;;;;5093039;28;20387;-10
2022/12/12 04:23:55;;;;;;;1.00;1.00;;;15.30;47.40;;;;;;5092940;28;20052;-10
2022/12/12 04:26:40;;;;;;;0.90;0.90;;;15.30;47.40;;;;;;5092924;28;20101;-11
2022/12/12 04:29:18;;;;;;;1.20;1.10;;;15.30;47.40;;;;;;5092815;28;20105;-11
2022/12/12 04:31:52;;;;;;;1.10;1.00;;;15.30;47.40;;;;;;5093279;28;20047;-10
2022/12/12 04:34:38;;;;;;;0.80;0.80;;;15.30;47.50;;;;;;5093391;28;20182;-11
2022/12/12 04:37:06;;;;;;;0.93;0.93;;;15.30;47.50;;;;;;5092700;28;20059;-10
2022/12/12 04:39:35;;;;;;;1.42;1.08;;;15.30;47.50;;;;;;5092995;28;20073;-10
2022/12/12 04:42:04;;;;;;;1.15;1.05;;;15.30;47.50;;;;;;5092753;28;20054;-11
2022/12/12 04:44:32;;;;;;;1.40;1.30;;;15.30;47.50;;;;;;5092753;28;20040;-11
2022/12/12 04:47:00;;;;;;;1.15;1.05;;;15.30;47.50;;;;;;5092490;28;20485;-11
2022/12/12 04:49:29;;;;;;;0.80;0.80;;;15.30;47.50;;;;;;5092525;28;20470;-11
2022/12/12 04:52:10;;;;;;;0.85;0.85;;;15.30;47.50;;;;;;5092574;28;20055;-11
2022/12/12 04:54:49;;;;;;;1.05;1.00;;;15.30;48.00;;;;;;5074580;28;20084;-10
2022/12/12 04:57:30;;;;;;;1.10;1.00;;;15.30;47.50;;;;;;5092251;28;20071;-11
2022/12/12 04:59:56;;;;;;;0.95;0.95;;;15.30;47.50;;;;;;5092537;28;20147;-11
2022/12/12 05:02:35;;;;;;;0.82;0.82;;;15.30;47.50;;;;;;5074271;28;20485;-10
2022/12/12 05:05:11;;;;;;;0.80;0.80;;;15.30;47.50;;;;;;5092439;28;20060;-11
2022/12/12 05:07:45;;;;;;;1.10;1.10;;;15.30;47.50;;;;;;5071998;28;20053;-11
2022/12/12 05:10:14;;;;;;;1.02;1.02;;;15.30;47.50;;;;;;5092734;28;20055;-10
2022/12/12 05:13:00;;;;;;;1.50;1.15;;;15.30;47.50;;;;;;5092124;28;20055;-10
2022/12/12 05:15:27;;;;;;;0.88;0.88;;;15.30;47.50;;;;;;5092331;28;20074;-10
2022/12/12 05:18:04;;;;;;;1.30;1.20;;;15.30;47.50;;;;;;5091888;28;20414;-10
2022/12/12 05:20:30;;;;;;;1.00;1.00;;;15.30;47.60;;;;;;5092613;28;20051;-10
2022/12/12 05:22:56;;;;;;;1.10;1.00;;;15.30;47.50;;;;;;5092148;28;20451;-11
2022/12/12 05:25:21;;;;;;;1.30;1.20;;;15.30;47.60;;;;;;5092145;28;20486;-10
2022/12/12 05:27:47;;;;;;;1.10;1.00;;;15.30;47.60;;;;;;5095171;28;20517;-11
2022/12/12 05:30:13;;;;;;;1.10;1.10;;;15.30;47.60;;;;;;5078018;28;20367;-11
2022/12/12 05:32:39;;;;;;;1.05;1.05;;;15.30;47.50;;;;;;5095549;28;20056;-10
2022/12/12 05:35:06;;;;;;;1.15;1.05;;;15.30;47.60;;;;;;5095712;28;20193;-11
2022/12/12 05:37:31;;;;;;;1.20;1.10;;;15.30;47.60;;;;;;5095211;28;20055;-11
2022/12/12 05:39:57;;;;;;;1.20;1.10;;;15.30;47.60;;;;;;5095407;28;20052;-10
2022/12/12 05:42:23;;;;;;;1.10;1.00;;;15.30;47.60;;;;;;5095488;28;20051;-10
2022/12/12 05:44:50;;;;;;;0.80;0.80;;;15.30;47.60;;;;;;5095458;28;20162;-10
2022/12/12 05:47:17;;;;;;;1.10;1.00;;;15.30;47.60;;;;;;5095257;28;20126;-11
2022/12/12 05:49:43;;;;;;;1.17;1.00;;;15.30;47.60;;;;;;5095370;28;20063;-10
2022/12/12 05:52:09;;;;;;;1.10;1.00;;;15.30;47.60;;;;;;5095299;28;20047;-11
2022/12/12 05:54:35;;;;;;;1.25;1.15;;;15.20;48.10;;;;;;5095573;28;20374;-10
2022/12/12 05:57:00;;;;;;;0.82;0.82;;;15.30;47.60;;;;;;5095375;28;20052;-11
2022/12/12 05:59:26;;;;;;;1.30;1.20;;;15.30;47.60;;;;;;5095278;28;20047;-10
2022/12/12 06:01:52;;;;;;;1.02;1.02;;;15.30;47.60;;;;;;5095214;28;20052;-10
2022/12/12 06:04:17;;;;;;;1.17;1.10;;;15.30;47.60;;;;;;5095358;28;20382;-10
2022/12/12 06:06:44;;;;;;;1.20;1.10;;;15.30;47.60;;;;;;5095055;28;20056;-11
2022/12/12 06:09:09;;;;;;;1.30;1.20;;;15.30;47.60;;;;;;5094891;28;20182;-10
2022/12/12 06:11:35;;;;;;;1.30;1.20;;;15.30;47.60;;;;;;5095009;28;20052;-10
2022/12/12 06:14:01;;;;;;;0.90;0.90;;;15.30;47.60;;;;;;5094908;28;20047;-10
2022/12/12 06:16:26;;;;;;;1.20;1.10;;;15.30;47.60;;;;;;5094848;28;20405;-11
2022/12/12 06:18:53;;;;;;;1.25;1.15;;;15.30;47.60;;;;;;5094945;28;20041;-11
2022/12/12 06:21:20;;;;;;;0.90;0.90;;;15.30;47.60;;;;;;5094768;28;20060;-10
2022/12/12 06:23:46;;;;;;;1.33;1.23;;;15.30;47.60;;;;;;5094892;28;20064;-10
2022/12/12 06:26:13;;;;;;;1.15;1.10;;;15.20;47.60;;;;;;5094891;28;20059;-10
2022/12/12 06:28:39;;;;;;;1.00;1.00;;;15.20;47.60;;;;;;5095213;28;20076;-10
2022/12/12 06:31:06;;;;;;;1.08;0.98;;;15.20;47.60;;;;;;5094717;28;20505;-10
2022/12/12 06:33:34;;;;;;;1.30;1.20;;;15.30;47.60;;;;;;5094759;28;20046;-10
2022/12/12 06:36:01;;;;;;;0.93;0.93;;;15.30;47.60;;;;;;5094909;28;20058;-11
2022/12/12 06:38:28;;;;;;;1.30;1.20;;;15.30;47.60;;;;;;5094397;28;20134;-11
2022/12/12 06:40:53;;;;;;;1.23;1.13;;;15.30;47.60;;;;;;5094560;28;20093;-10
2022/12/12 06:43:19;;;;;;;1.38;1.27;;;15.30;47.60;;;;;;5094816;28;20086;-10
2022/12/12 06:45:46;;;;;;;1.08;0.98;;;15.30;47.60;;;;;;5094412;28;20052;-10
2022/12/12 06:48:12;;;;;;;1.35;1.25;;;15.30;47.60;;;;;;5074350;28;20371;-10
2022/12/12 06:50:43;;;;;;;0.98;0.98;;;15.30;47.60;;;;;;5094383;28;20508;-10
2022/12/12 06:53:09;;;;;;;1.25;1.13;;;15.30;47.60;;;;;;5094455;28;20460;-10
2022/12/12 06:55:40;;;;;;;1.20;1.10;;;15.30;47.60;;;;;;5094180;28;20044;-10
2022/12/12 06:58:06;;;;;;;1.13;1.08;;;15.30;47.60;;;;;;5094252;28;20113;-10
2022/12/12 07:00:33;;;;;;;1.30;1.20;;;15.30;47.60;;;;;;5094319;28;20048;-10
2022/12/12 07:02:58;;;;;;;1.35;1.25;;;15.30;47.60;;;;;;5094223;28;20125;-10
2022/12/12 07:05:24;;;;;;;0.98;0.98;;;15.30;47.60;;;;;;5093884;28;20090;-10
2022/12/12 07:07:49;;;;;;;1.27;1.17;;;15.30;47.50;;;;;;5093951;28;20051;-10
2022/12/12 07:10:15;;;;;;;1.30;1.20;;;15.20;47.50;;;;;;5094251;28;20079;-10
2022/12/12 07:12:41;;;;;;;1.30;1.20;;;15.30;47.50;;;;;;5093589;28;20053;-11
2022/12/12 07:15:06;;;;;;;0.95;0.95;;;15.30;47.50;;;;;;5094203;28;20060;-10
2022/12/12 07:17:32;;;;;;;1.15;1.05;;;15.30;47.50;;;;;;5093735;28;20047;-10
2022/12/12 07:19:58;;;;;;;1.38;1.25;;;15.30;47.50;;;;;;5093572;28;20052;-11
2022/12/12 07:22:24;;;;;;;1.35;1.25;;;15.30;47.50;;;;;;5093582;28;20109;-11
2022/12/12 07:24:51;;;;;;;1.30;1.20;;;15.20;47.60;;;;;;5093148;28;20113;-11
2022/12/12 07:27:17;;;;;;;1.40;1.30;;;15.30;47.50;;;;;;5093157;28;20073;-11
2022/12/12 07:29:43;;;;;;;1.08;1.08;;;15.30;47.50;;;;;;5092618;28;20469;-11
2022/12/12 07:32:09;;;;;;;1.00;1.00;;;15.30;47.50;;;;;;5093179;28;20113;-11
2022/12/12 07:34:35;;;;;;;1.40;1.30;;;15.20;47.40;;;;;;5093818;28;20493;-10
2022/12/12 07:37:01;;;;;;;1.10;1.05;;;15.30;47.60;;;;;;5093466;28;20051;-10
2022/12/12 07:39:32;;;;;;;1.30;1.20;;;15.30;47.50;;;;;;5093339;28;20521;-10
2022/12/12 07:41:58;;;;;;;1.30;1.20;;;15.20;47.50;;;;;;5093554;28;20130;-11
2022/12/12 07:44:24;;;;;;;1.35;1.25;;;15.30;47.50;;;;;;5092027;28;20048;-10
2022/12/12 07:46:50;;;;;;;1.38;1.27;;;15.30;47.40;;;;;;5093272;28;20417;-10
2022/12/12 07:49:16;;;;;;;1.23;1.13;;;15.30;47.50;;;;;;5092402;28;20048;-10
2022/12/12 07:51:42;;;;;;;1.23;1.13;;;15.30;47.40;;;;;;5093683;28;20051;-10
2022/12/12 07:54:07;;;;;;;1.30;1.20;;;15.30;47.40;;;;;;5093309;28;20401;-10
2022/12/12 07:56:33;;;;;;;1.55;1.40;;;15.30;47.40;;;;;;5093134;28;20044;-10
2022/12/12 07:58:58;;;;;;;1.40;1.30;;;15.30;47.40;;;;;;5093145;28;20079;-10
2022/12/12 08:01:26;;;;;;;1.63;1.52;;;15.30;47.40;;;;;;5093535;28;20402;-12
2022/12/12 08:03:53;;;;;;;1.35;1.20;;;15.30;47.40;;;;;;5093483;28;20067;-11
2022/12/12 08:06:20;;;;;;;1.10;1.10;;;15.30;47.40;;;;;;5092885;28;20060;-11
2022/12/12 08:08:47;;;;;;;1.38;1.27;;;15.30;47.40;;;;;;5074857;28;20412;-10
2022/12/12 08:11:15;;;;;;;1.40;1.30;;;15.30;47.40;;;;;;5093035;28;20056;-11
2022/12/12 08:13:41;;;;;;;1.67;1.20;;;15.30;47.30;;;;;;5093117;28;20048;-12
2022/12/12 08:16:16;;;;;;;1.30;1.20;;;15.30;47.30;;;;;;5092699;28;20079;-12
2022/12/12 08:18:42;;;;;;;1.40;1.30;;;15.30;47.30;;;;;;5092657;28;20044;-11
2022/12/12 08:21:09;;;;;;;1.63;1.48;;;15.30;47.30;;;;;;5091002;28;20496;-11
2022/12/12 08:23:36;;;;;;;1.77;1.30;;;15.30;47.30;;;;;;5092605;28;20484;-11
2022/12/12 08:26:12;;;;;;;1.30;1.20;;;15.30;47.30;;;;;;5092216;28;20063;-10
2022/12/12 08:28:40;;;;;;;1.98;1.20;;;15.40;47.30;;;;;;5092512;28;20402;-9
2022/12/12 08:31:09;;;;;;;1.23;1.13;;;15.30;47.20;;;;;;5073519;28;20510;-9
2022/12/12 08:33:35;;;;;;;1.35;1.25;;;15.30;47.20;;;;;;5092220;28;20142;-9
2022/12/12 08:36:13;;;;;;;1.58;1.40;;;15.40;47.30;;;;;;5092431;28;20147;-9
2022/12/12 08:38:39;;;;;;;1.40;1.30;;;15.40;47.30;;;;;;5092241;28;20048;-9
2022/12/12 08:41:05;;;;;;;1.90;1.35;;;15.40;47.30;;;;;;5092396;28;20050;-9
2022/12/12 08:43:31;;;;;;;1.45;1.30;;;15.40;47.30;;;;;;5092386;28;20135;-9
2022/12/12 08:46:00;;;;;;;1.60;1.27;;;15.40;47.20;;;;;;5092582;28;20044;-9
2022/12/12 08:48:26;;;;;;;1.45;1.35;;;15.40;47.70;;;;;;5092355;28;20044;-9
2022/12/12 08:50:53;;;;;;;1.48;1.38;;;15.40;47.30;;;;;;5092456;28;20088;-10
2022/12/12 08:53:19;;;;;;;1.48;1.33;;;15.40;47.30;;;;;;5092078;28;20084;-9
2022/12/12 08:55:44;;;;;;;1.30;1.20;;;15.40;47.20;;;;;;5090653;28;20070;-10
2022/12/12 08:58:10;;;;;;;1.40;1.30;;;15.40;47.20;;;;;;5092108;28;20422;-10
2022/12/12 09:00:36;;;;;;;1.33;1.23;;;15.40;47.20;;;;;;5093380;28;20052;-10
2022/12/12 09:03:03;;;;;;;1.40;1.30;;;15.40;47.20;;;;;;5094194;28;20409;-10
2022/12/12 09:05:29;;;;;;;1.55;1.40;;;15.40;47.20;;;;;;5094097;28;20439;-10
2022/12/12 09:07:55;;;;;;;1.60;1.50;;;15.40;47.20;;;;;;5093688;28;20097;-10
2022/12/12 09:10:21;;;;;;;1.40;1.30;;;15.40;47.20;;;;;;5094793;28;20051;-10
2022/12/12 09:12:46;;;;;;;1.63;1.50;;;15.40;47.20;;;;;;5094480;28;20104;-10
2022/12/12 09:15:13;;;;;;;1.52;1.40;;;15.40;47.20;;;;;;5094716;28;20145;-11
2022/12/12 09:17:39;;;;;;;1.67;1.58;;;15.40;47.20;;;;;;5095472;28;20106;-10
2022/12/12 09:20:05;;;;;;;1.70;1.55;;;15.40;47.10;;;;;;5093894;28;20052;-10
2022/12/12 09:22:31;;;;;;;1.35;1.25;;;15.40;47.10;;;;;;5095472;28;20497;-9
2022/12/12 09:24:57;;;;;;;1.50;1.40;;;15.40;47.10;;;;;;5095459;28;20050;-9
2022/12/12 09:27:24;;;;;;;1.77;1.50;;;15.40;47.10;;;;;;5095628;28;20138;-10
2022/12/12 09:29:50;;;;;;;1.60;1.40;;;15.40;47.10;;;;;;5095738;28;20401;-9
2022/12/12 09:32:17;;;;;;;1.48;1.33;;;15.40;47.10;;;;;;5095357;28;20064;-9
2022/12/12 09:34:43;;;;;;;1.60;1.50;;;15.40;47.10;;;;;;5095385;28;20075;-9
2022/12/12 09:37:09;;;;;;;1.40;1.30;;;15.40;47.10;;;;;;5095529;28;20076;-12
2022/12/12 09:39:35;;;;;;;3.10;1.48;;;15.50;47.40;;;;;;5095397;28;20051;-12
2022/12/12 09:42:21;;;;;;;2.97;1.40;;;15.70;47.20;;;;;;5095532;28;20135;-11
2022/12/12 09:44:49;;;;;;;3.20;1.27;;;15.90;46.60;;;;;;5095069;28;20447;-12
2022/12/12 09:47:31;;;;;;;2.25;1.63;;;16.10;46.40;;;;;;5094906;28;20556;-12
2022/12/12 09:50:02;;;;;;;1.73;1.50;;;16.30;46.40;;;;;;5095264;28;20101;-11
2022/12/12 09:52:34;;;;;;;2.70;1.75;;;16.50;45.50;;;;;;5094694;28;20048;-12
2022/12/12 09:55:21;;;;;;;2.92;1.70;;;16.60;45.20;;;;;;5094934;28;20110;-12
2022/12/12 09:58:19;;;;;;;1.52;1.42;;;16.70;45.00;;;;;;5094681;28;20043;-12
2022/12/12 10:01:07;;;;;;;2.40;1.90;;;16.80;44.80;;;;;;5081636;28;20101;-9
2022/12/12 10:04:17;;;;;;;3.25;1.83;;;16.90;44.80;;;;;;5094077;28;20052;-10
2022/12/12 10:06:48;;;;;;;1.83;1.42;;;16.90;44.60;;;;;;5094590;28;20056;-10
2022/12/12 10:09:33;;;;;;;3.28;2.05;;;17.00;44.50;;;;;;5094621;28;20048;-10
2022/12/12 10:12:02;;;;;;;2.22;1.88;;;17.10;44.40;;;;;;5093952;28;20082;-10
2022/12/12 10:14:45;;;;;;;1.85;1.65;;;17.10;44.30;;;;;;5094851;28;20044;-10
2022/12/12 10:17:19;;;;;;;4.07;1.80;;;17.20;44.20;;;;;;5094952;28;20052;-9
2022/12/12 10:19:52;;;;;;;1.88;1.67;;;17.20;44.10;;;;;;5094497;28;20140;-9
2022/12/12 10:22:37;;;;;;;3.28;1.45;;;17.30;44.10;;;;;;5094856;28;20059;-10
2022/12/12 10:25:17;;;;;;;3.05;1.52;;;17.30;44.00;;;;;;5094433;28;20047;-10
2022/12/12 10:27:43;;;;;;;1.10;1.00;;;17.30;43.90;;;;;;5094411;28;20400;-10
2022/12/12 10:30:15;;;;;;;1.75;1.60;;;17.40;43.90;;;;;;5094823;28;20056;-9
2022/12/12 10:32:52;;;;;;;2.80;1.80;;;17.40;43.80;;;;;;5094116;28;20460;-10
2022/12/12 10:35:37;;;;;;;1.60;1.42;;;17.40;43.80;;;;;;5094438;28;20048;-9
2022/12/12 10:38:33;;;;;;;2.47;1.65;;;17.50;43.70;;;;;;5094387;28;20409;-10
2022/12/12 10:41:00;;;;;;;1.90;1.70;;;17.50;43.60;;;;;;5094242;28;20083;-10
2022/12/12 10:44:09;;;;;;;4.70;2.38;;;17.50;43.50;;;;;;5094454;28;20078;-9
2022/12/12 10:46:40;;;;;;;2.45;1.83;;;17.60;43.50;;;;;;4992651;28;20050;-9
2022/12/12 10:49:19;;;;;;;1.80;1.50;;;17.60;43.40;;;;;;5081352;28;20142;-10
2022/12/12 10:51:47;;;;;;;1.67;1.52;;;17.60;43.30;;;;;;5093887;28;20054;-10
2022/12/12 10:54:17;;;;;;;1.67;1.58;;;17.60;43.30;;;;;;5094116;28;20047;-10
2022/12/12 10:57:18;;;;;;;1.67;1.47;;;17.70;43.30;;;;;;5094106;28;20139;-11
2022/12/12 10:59:48;;;;;;;2.13;1.73;;;17.70;43.70;;;;;;5073079;28;20143;-10
2022/12/12 11:02:23;;;;;;;2.00;1.70;;;17.80;43.10;;;;;;5093726;28;20055;-10
2022/12/12 11:05:05;;;;;;;2.95;1.50;;;17.80;43.20;;;;;;5093615;28;20076;-10
2022/12/12 11:07:37;;;;;;;2.72;1.77;;;17.80;43.10;;;;;;5093888;28;20058;-9
2022/12/12 11:10:20;;;;;;;3.53;1.88;;;17.80;43.00;;;;;;5093941;28;20155;-9
2022/12/12 11:12:58;;;;;;;2.17;1.98;;;17.80;43.00;;;;;;5093598;28;20409;-9
2022/12/12 11:15:29;;;;;;;1.92;1.73;;;17.90;43.00;;;;;;5091789;28;20125;-10
2022/12/12 11:17:57;;;;;;;1.92;1.52;;;17.90;42.90;;;;;;5091398;28;20048;-11
2022/12/12 11:20:23;;;;;;;2.08;1.63;;;17.90;42.90;;;;;;5091967;28;20455;-11
2022/12/12 11:22:53;;;;;;;2.30;1.88;;;17.90;42.90;;;;;;5092650;28;20090;-10
2022/12/12 11:25:31;;;;;;;1.95;1.77;;;18.00;42.80;;;;;;5091946;28;20101;-11
2022/12/12 11:28:00;;;;;;;2.15;1.60;;;18.00;43.40;;;;;;5093113;28;20512;-11
2022/12/12 11:30:41;;;;;;;3.05;1.80;;;18.00;42.80;;;;;;5093647;28;20210;-11
2022/12/12 11:33:18;;;;;;;1.88;1.73;;;18.00;42.80;;;;;;5093689;28;20135;-11
2022/12/12 11:35:54;;;;;;;1.60;1.50;;;18.00;42.80;;;;;;5093495;28;20048;-11
2022/12/12 11:38:26;;;;;;;2.08;1.88;;;18.00;42.80;;;;;;5093996;28;20048;-11
2022/12/12 11:41:05;;;;;;;2.00;1.80;;;18.00;42.70;;;;;;5093523;28;20052;-11
2022/12/12 11:43:36;;;;;;;2.13;1.60;;;18.10;42.70;;;;;;5093473;28;20087;-11
2022/12/12 11:46:15;;;;;;;3.35;1.83;;;18.10;42.60;;;;;;5093460;28;20052;-11
2022/12/12 11:48:50;;;;;;;2.05;1.80;;;18.10;42.60;;;;;;5093758;28;20040;-11
2022/12/12 11:51:31;;;;;;;2.20;1.70;;;18.10;43.20;;;;;;5093674;28;20101;-10
2022/12/12 11:53:57;;;;;;;1.73;1.63;;;18.10;42.60;;;;;;5093369;28;20044;-11
2022/12/12 11:56:44;;;;;;;2.17;1.80;;;18.20;42.70;;;;;;5093458;28;20093;-11
2022/12/12 11:59:10;;;;;;;1.77;1.67;;;18.10;42.50;;;;;;5074713;28;20125;-11
2022/12/12 12:01:52;;;;;;;3.05;2.05;;;18.20;42.50;;;;;;5093247;28;20052;-10
2022/12/12 12:04:35;;;;;;;2.00;1.80;;;18.20;42.50;;;;;;5093003;28;20127;-11
2022/12/12 12:07:09;;;;;;;2.03;1.75;;;18.20;42.40;;;;;;5093067;28;20043;-11
2022/12/12 12:09:35;;;;;;;1.92;1.65;;;18.20;42.40;;;;;;5092166;28;20351;-11
2022/12/12 12:12:21;;;;;;;2.97;1.77;;;18.30;42.40;;;;;;5092918;28;20059;-10
2022/12/12 12:14:55;;;;;;;2.20;1.88;;;18.30;42.30;;;;;;5092886;28;20127;-11
2022/12/12 12:17:30;;;;;;;2.05;1.70;;;18.30;42.30;;;;;;5093240;28;20050;-11
2022/12/12 12:20:38;;;;;;;2.33;2.00;;;18.40;42.30;;;;;;5092694;28;20063;-10
2022/12/12 12:23:31;;;;;;;1.83;1.73;;;18.40;42.30;;;;;;5092019;28;20463;-11
2022/12/12 12:26:07;;;;;;;1.88;1.77;;;18.40;42.20;;;;;;5091459;28;20079;-11
2022/12/12 12:28:40;;;;;;;2.42;2.13;;;18.40;42.20;;;;;;5092572;28;20081;-11
2022/12/12 12:31:37;;;;;;;2.85;1.65;;;18.40;42.10;;;;;;5092527;28;20098;-12
2022/12/12 12:34:36;;;;;;;2.95;2.30;;;18.40;42.10;;;;;;5091946;28;20056;-12
2022/12/12 12:37:11;;;;;;;4.07;1.90;;;18.40;42.10;;;;;;5091602;28;20051;-11
2022/12/12 12:39:46;;;;;;;2.15;1.92;;;18.40;42.00;;;;;;5091871;28;20385;-11
2022/12/12 12:42:24;;;;;;;2.45;2.05;;;18.40;42.00;;;;;;5090116;28;20139;-12
2022/12/12 12:45:05;;;;;;;1.83;1.73;;;18.50;42.10;;;;;;5088527;28;20044;-12
2022/12/12 12:47:53;;;;;;;2.43;2.23;;;18.40;42.10;;;;;;5091093;28;20082;-11
2022/12/12 12:50:30;;;;;;;2.20;1.92;;;18.40;42.10;;;;;;5090133;28;20056;-12
2022/12/12 12:53:10;;;;;;;4.15;2.10;;;18.40;42.10;;;;;;5089901;28;20599;-12
2022/12/12 12:55:45;;;;;;;1.73;1.63;;;18.40;42.10;;;;;;5090789;28;20188;-11
2022/12/12 12:58:19;;;;;;;2.40;2.10;;;18.50;42.20;;;;;;5091358;28;20305;-11
2022/12/12 13:00:51;;;;;;;1.60;1.50;;;18.50;42.20;;;;;;5091189;28;20063;-11
2022/12/12 13:03:22;;;;;;;2.83;2.00;;;18.40;42.10;;;;;;5091728;28;20069;-11
2022/12/12 13:05:55;;;;;;;2.17;1.83;;;18.50;42.10;;;;;;5090516;28;20528;-10
2022/12/12 13:08:38;;;;;;;2.42;2.10;;;18.50;42.10;;;;;;5092129;28;20066;-11
2022/12/12 13:11:12;;;;;;;2.30;2.10;;;18.50;42.10;;;;;;5092014;28;20402;-11
2022/12/12 13:13:43;;;;;;;1.90;1.80;;;18.50;42.20;;;;;;5091869;28;20048;-11
2022/12/12 13:16:18;;;;;;;2.47;2.15;;;18.50;42.10;;;;;;5092093;28;20048;-11
2022/12/12 13:18:59;;;;;;;2.22;2.00;;;18.50;42.70;;;;;;5092243;28;20090;-11
2022/12/12 13:21:34;;;;;;;2.23;1.80;;;18.50;42.10;;;;;;5092162;28;20058;-12
2022/12/12 13:24:06;;;;;;;2.00;1.80;;;18.50;42.10;;;;;;5091917;28;20052;-11
2022/12/12 13:26:51;;;;;;;2.05;1.85;;;18.50;42.20;;;;;;5091860;28;20501;-11
2022/12/12 13:29:45;;;;;;;2.10;1.83;;;18.50;42.10;;;;;;5091777;28;20135;-12